Time;durP1;ratioP1;P1;durP2;ratioP2;P2;SDS_P1;SDS_P2;PMS_P1;PMS_P2;Temp;Humidity;BMP_temperature;BMP_pressure;BME280_temperature;BME280_humidity;BME280_pressure;Samples;Min_cycle;Max_cycle;Signal;HPM_P1;HPM_P2
2023/08/23 00:00:03;;;;;;;10.30;8.27;;;;;;;21.66;77.48;94858.78;4985290;28;20211;-78
2023/08/23 00:02:30;;;;;;;14.80;10.18;;;;;;;21.81;78.04;94854.84;4984207;28;20209;-78
2023/08/23 00:04:56;;;;;;;18.92;10.68;;;;;;;21.61;77.77;94855.22;5004351;28;20201;-78
2023/08/23 00:07:23;;;;;;;13.35;8.40;;;;;;;21.53;77.97;94855.59;4992958;28;20220;-78
2023/08/23 00:09:50;;;;;;;15.65;8.82;;;;;;;21.42;78.93;94855.59;4991548;28;20573;-77
2023/08/23 00:12:17;;;;;;;14.02;9.75;;;;;;;21.32;80.21;94861.09;4992062;28;20220;-77
2023/08/23 00:14:44;;;;;;;14.50;9.88;;;;;;;21.28;79.68;94861.88;4992395;28;20252;-77
2023/08/23 00:17:12;;;;;;;13.07;10.10;;;;;;;21.41;79.69;94858.75;5005175;28;20229;-77
2023/08/23 00:19:39;;;;;;;17.00;9.32;;;;;;;21.41;78.93;94850.47;4992299;28;20214;-77
2023/08/23 00:22:05;;;;;;;13.07;10.05;;;;;;;21.39;79.39;94850.88;4992125;28;20265;-77
2023/08/23 00:24:32;;;;;;;14.35;9.30;;;;;;;21.40;78.73;94841.41;4992296;28;20723;-76
2023/08/23 00:26:59;;;;;;;13.60;9.15;;;;;;;21.36;79.40;94839.81;4991958;28;20276;-76
2023/08/23 00:29:26;;;;;;;14.63;9.45;;;;;;;21.43;78.64;94839.84;4991473;28;20217;-76
2023/08/23 00:31:53;;;;;;;13.90;9.23;;;;;;;21.50;78.26;94853.63;4991836;28;20214;-76
2023/08/23 00:34:21;;;;;;;10.52;8.63;;;;;;;21.42;79.04;94846.53;4991279;28;20209;-76
2023/08/23 00:36:48;;;;;;;12.32;9.07;;;;;;;21.39;79.56;94855.59;4991568;28;20280;-76
2023/08/23 00:39:15;;;;;;;14.02;9.48;;;;;;;21.29;79.90;94846.13;4991331;28;20595;-76
2023/08/23 00:41:43;;;;;;;13.15;8.55;;;;;;;21.20;80.18;94854.75;4991857;28;20293;-76
2023/08/23 00:44:09;;;;;;;14.27;9.50;;;;;;;21.10;80.73;94844.47;4991405;28;20551;-76
2023/08/23 00:46:36;;;;;;;15.88;9.70;;;;;;;21.11;80.86;94845.25;4991437;28;20209;-76
2023/08/23 00:49:04;;;;;;;13.68;9.60;;;;;;;20.96;81.92;94838.91;4991237;28;20217;-76
2023/08/23 00:51:32;;;;;;;18.90;10.13;;;;;;;20.98;82.36;94857.81;4991606;28;20205;-76
2023/08/23 00:53:59;;;;;;;18.67;9.27;;;;;;;20.91;83.35;94842.03;4991589;28;20232;-76
2023/08/23 00:56:26;;;;;;;15.35;9.55;;;;;;;21.01;82.88;94851.53;4991191;28;20209;-77
2023/08/23 00:58:53;;;;;;;18.08;10.35;;;;;;;20.99;81.85;94849.16;4991096;28;20209;-76
2023/08/23 01:01:20;;;;;;;17.67;10.07;;;;;;;21.01;80.65;94846.81;4991148;28;20641;-76
2023/08/23 01:03:46;;;;;;;12.15;9.23;;;;;;;20.99;81.68;94840.91;4991319;28;20209;-75
2023/08/23 01:06:27;;;;;;;12.10;8.43;;;;;;;20.99;81.39;94846.41;4991185;28;20205;-76
2023/08/23 01:09:14;;;;;;;16.40;9.07;;;;;;;21.00;81.33;94844.44;4990790;28;20205;-76
2023/08/23 01:11:46;;;;;;;12.50;9.27;;;;;;;20.98;82.93;94855.84;4991280;28;20717;-76
2023/08/23 01:14:21;;;;;;;13.90;9.00;;;;;;;20.97;82.18;94850.72;4990657;28;20566;-76
2023/08/23 01:16:48;;;;;;;10.95;8.38;;;;;;;20.88;81.91;94857.38;4991325;28;20622;-76
2023/08/23 01:19:36;;;;;;;15.13;9.27;;;;;;;20.87;82.92;94849.50;4990933;28;20307;-76
2023/08/23 01:22:07;;;;;;;14.32;8.80;;;;;;;20.81;83.02;94848.28;4988531;28;20217;-76
2023/08/23 01:24:36;;;;;;;17.38;9.05;;;;;;;20.69;83.34;94851.38;4990938;28;20240;-76
2023/08/23 01:27:03;;;;;;;13.35;8.75;;;;;;;20.68;83.43;94855.31;4990855;28;21020;-76
2023/08/23 01:29:30;;;;;;;15.55;9.75;;;;;;;20.65;83.74;94850.56;4990523;28;20221;-76
2023/08/23 01:32:06;;;;;;;11.88;9.05;;;;;;;20.71;82.78;94854.56;4991287;28;20678;-76
2023/08/23 01:34:38;;;;;;;13.02;9.30;;;;;;;20.78;83.06;94844.34;4990881;28;20209;-76
2023/08/23 01:37:06;;;;;;;12.75;9.07;;;;;;;20.69;83.10;94848.63;4990636;28;20332;-76
2023/08/23 01:39:36;;;;;;;12.77;8.63;;;;;;;20.54;84.54;94856.81;4990743;28;20220;-76
2023/08/23 01:42:03;;;;;;;11.65;8.63;;;;;;;20.50;83.75;94850.50;4990772;28;20221;-76
2023/08/23 01:44:30;;;;;;;13.65;9.38;;;;;;;20.49;84.08;94856.41;4990537;28;20217;-76
2023/08/23 01:46:57;;;;;;;13.95;9.10;;;;;;;20.40;83.98;94854.00;4991058;28;20238;-76
2023/08/23 01:49:23;;;;;;;13.98;9.68;;;;;;;20.43;85.59;94852.44;4990424;28;20217;-76
2023/08/23 01:51:50;;;;;;;16.67;10.07;;;;;;;20.53;85.44;94849.75;4991035;28;20655;-76
2023/08/23 01:54:17;;;;;;;14.32;9.30;;;;;;;20.51;84.93;94848.53;4990526;28;20214;-76
2023/08/23 01:56:45;;;;;;;13.65;8.80;;;;;;;20.53;84.92;94846.19;4991052;28;20213;-75
2023/08/23 01:59:12;;;;;;;17.52;9.32;;;;;;;20.51;84.27;94851.28;4989981;28;20261;-76
2023/08/23 02:01:39;;;;;;;10.48;8.07;;;;;;;20.52;82.52;94847.38;4989031;28;20206;-77
2023/08/23 02:04:05;;;;;;;12.68;9.80;;;;;;;20.55;83.18;94849.34;4992247;28;20209;-77
2023/08/23 02:06:32;;;;;;;14.82;8.73;;;;;;;20.53;83.15;94838.72;4988179;28;20213;-77
2023/08/23 02:08:59;;;;;;;15.43;9.63;;;;;;;20.38;84.23;94853.59;4989615;28;20198;-77
2023/08/23 02:11:26;;;;;;;13.57;8.23;;;;;;;20.36;83.71;94850.47;4993331;28;20665;-77
2023/08/23 02:13:54;;;;;;;13.20;9.73;;;;;;;20.39;83.77;94852.41;4989625;28;20711;-77
2023/08/23 02:16:21;;;;;;;12.18;9.48;;;;;;;20.38;83.61;94852.81;4986699;28;20202;-77
2023/08/23 02:18:47;;;;;;;14.32;9.63;;;;;;;20.29;83.71;94850.38;4998193;28;20220;-77
2023/08/23 02:21:14;;;;;;;15.27;9.90;;;;;;;20.20;84.21;94852.69;4995396;28;20205;-77
2023/08/23 02:23:41;;;;;;;14.80;9.95;;;;;;;20.26;83.36;94851.13;4999761;28;20680;-77
2023/08/23 02:26:08;;;;;;;15.68;8.98;;;;;;;20.28;83.83;94843.28;4999837;28;20201;-78
2023/08/23 02:28:35;;;;;;;15.50;10.10;;;;;;;20.34;82.08;94841.75;4999438;28;20229;-77
2023/08/23 02:31:03;;;;;;;13.32;9.35;;;;;;;20.36;83.39;94844.94;4999007;28;20292;-76
2023/08/23 02:33:30;;;;;;;14.35;9.38;;;;;;;20.32;83.25;94849.59;5000497;28;20659;-76
2023/08/23 02:35:57;;;;;;;16.60;9.88;;;;;;;20.30;84.08;94846.44;4994157;28;20214;-76
2023/08/23 02:38:24;;;;;;;15.23;9.23;;;;;;;20.24;83.88;94843.25;4993298;28;20233;-77
2023/08/23 02:40:51;;;;;;;15.30;9.07;;;;;;;20.26;84.32;94842.88;4999630;28;20205;-78
2023/08/23 02:43:17;;;;;;;12.45;9.02;;;;;;;20.23;84.48;94840.88;5002057;28;20208;-77
2023/08/23 02:45:44;;;;;;;11.52;8.95;;;;;;;20.21;84.17;94837.75;5006113;28;20197;-77
2023/08/23 02:48:12;;;;;;;15.32;9.52;;;;;;;20.26;84.46;94842.09;4991540;28;20209;-77
2023/08/23 02:50:39;;;;;;;14.15;9.63;;;;;;;20.16;84.48;94840.84;4993362;28;20280;-77
2023/08/23 02:53:06;;;;;;;14.15;10.02;;;;;;;19.97;85.37;94843.84;4990261;28;20560;-76
2023/08/23 02:55:41;;;;;;;11.35;8.90;;;;;;;19.89;85.67;94845.78;4985181;28;20214;-76
2023/08/23 02:58:08;;;;;;;19.02;9.98;;;;;;;19.80;86.47;94840.63;4988559;28;20308;-77
2023/08/23 03:00:35;;;;;;;20.42;11.52;;;;;;;19.87;85.82;94840.66;4989972;28;20201;-76
2023/08/23 03:03:01;;;;;;;17.00;11.50;;;;;;;19.99;86.08;94845.06;4989205;28;20197;-76
2023/08/23 03:05:30;;;;;;;15.95;10.73;;;;;;;19.99;85.67;94847.03;4992183;28;20218;-76
2023/08/23 03:07:57;;;;;;;14.65;9.95;;;;;;;19.99;85.37;94845.06;4984501;28;20209;-76
2023/08/23 03:10:23;;;;;;;14.52;9.98;;;;;;;20.00;85.86;94848.59;4992264;28;20216;-76
2023/08/23 03:12:50;;;;;;;13.90;10.20;;;;;;;20.01;85.56;94850.19;4991156;28;20229;-75
2023/08/23 03:15:17;;;;;;;14.93;9.95;;;;;;;20.00;84.77;94841.13;4992519;28;20249;-76
2023/08/23 03:17:44;;;;;;;18.77;11.35;;;;;;;19.99;84.78;94841.53;4981639;28;20232;-75
2023/08/23 03:20:11;;;;;;;17.63;10.63;;;;;;;19.99;84.20;94841.53;4987436;28;20205;-76
2023/08/23 03:22:40;;;;;;;15.93;9.88;;;;;;;19.99;85.13;94841.53;4983150;28;20210;-76
2023/08/23 03:25:07;;;;;;;17.17;10.40;;;;;;;20.02;84.55;94844.31;4980788;28;20292;-76
2023/08/23 03:27:34;;;;;;;17.20;10.15;;;;;;;20.00;85.58;94848.59;4985139;28;20218;-76
2023/08/23 03:30:00;;;;;;;19.98;10.63;;;;;;;19.92;86.13;94847.78;4989935;28;20209;-76
2023/08/23 03:32:27;;;;;;;19.05;10.90;;;;;;;19.92;85.92;94838.72;4984069;28;20284;-76
2023/08/23 03:34:54;;;;;;;23.83;10.52;;;;;;;19.90;84.80;94844.59;4988141;28;20228;-76
2023/08/23 03:37:21;;;;;;;15.95;10.32;;;;;;;19.94;85.84;94841.91;4996345;28;20209;-76
2023/08/23 03:39:49;;;;;;;17.15;9.98;;;;;;;19.93;85.77;94845.81;4988185;28;20216;-76
2023/08/23 03:42:16;;;;;;;16.02;9.95;;;;;;;19.92;86.12;94847.78;4977783;28;20206;-75
2023/08/23 03:44:43;;;;;;;19.52;11.20;;;;;;;19.88;86.20;94853.22;4985742;28;20308;-75
2023/08/23 03:47:09;;;;;;;16.70;11.98;;;;;;;19.90;86.44;94849.31;4990537;28;20244;-77
2023/08/23 03:49:37;;;;;;;15.10;10.23;;;;;;;19.95;86.54;94846.22;4978594;28;20202;-76
2023/08/23 03:52:05;;;;;;;32.25;18.20;;;;;;;20.00;85.60;94852.13;4979468;28;20209;-76
2023/08/23 03:54:33;;;;;;;20.67;13.52;;;;;;;20.16;85.42;94846.34;4988433;28;20666;-76
2023/08/23 03:57:01;;;;;;;19.95;11.02;;;;;;;20.44;84.70;94843.00;4992298;28;20236;-77
2023/08/23 03:59:28;;;;;;;15.98;10.48;;;;;;;20.79;83.16;94851.44;4987332;28;20233;-76
2023/08/23 04:01:54;;;;;;;12.85;9.55;;;;;;;21.20;81.85;94838.22;4987706;28;20217;-76
2023/08/23 04:04:21;;;;;;;13.88;9.88;;;;;;;21.59;80.31;94838.28;4979466;28;20220;-76
2023/08/23 04:06:48;;;;;;;14.00;10.02;;;;;;;22.08;78.08;94839.50;4981536;28;20207;-76
2023/08/23 04:09:15;;;;;;;13.82;10.68;;;;;;;22.54;76.22;94831.13;4983830;28;20213;-76
2023/08/23 04:11:42;;;;;;;20.75;10.50;;;;;;;23.18;74.18;94839.16;4991550;28;20217;-76
2023/08/23 04:14:10;;;;;;;20.05;9.82;;;;;;;23.69;71.88;94832.16;4985675;28;20242;-75
2023/08/23 04:16:37;;;;;;;16.35;9.93;;;;;;;24.32;69.77;94830.84;4978462;28;20223;-74
2023/08/23 04:19:03;;;;;;;14.68;9.75;;;;;;;24.90;68.18;94831.00;4988715;28;20242;-73
2023/08/23 04:21:30;;;;;;;16.70;9.70;;;;;;;25.46;65.63;94824.72;4990335;28;20206;-75
2023/08/23 04:23:57;;;;;;;16.30;12.07;;;;;;;25.18;65.89;94833.44;4990727;28;20198;-75
2023/08/23 04:26:24;;;;;;;15.85;11.73;;;;;;;25.42;65.19;94834.31;4984080;28;20218;-75
2023/08/23 04:28:51;;;;;;;16.05;12.07;;;;;;;26.16;62.79;94827.59;4987238;28;20217;-77
2023/08/23 04:31:19;;;;;;;14.05;10.10;;;;;;;26.47;61.93;94824.72;4978135;28;20276;-76
2023/08/23 04:33:46;;;;;;;12.20;9.45;;;;;;;27.19;59.07;94824.91;4987384;28;20209;-75
2023/08/23 04:36:12;;;;;;;15.45;11.70;;;;;;;27.72;57.54;94823.75;4987000;28;20226;-76
2023/08/23 04:38:38;;;;;;;19.98;11.95;;;;;;;28.11;56.64;94817.22;4990517;28;20233;-76
2023/08/23 04:41:06;;;;;;;16.95;10.00;;;;;;;28.43;55.38;94826.81;4984099;28;20207;-76
2023/08/23 04:43:33;;;;;;;16.92;10.30;;;;;;;28.72;54.47;94827.59;4982646;28;20629;-76
2023/08/23 04:46:00;;;;;;;17.65;11.82;;;;;;;29.21;52.90;94827.47;4987164;28;20284;-76
2023/08/23 04:48:28;;;;;;;14.50;11.45;;;;;;;29.44;51.93;94829.97;4985052;28;20621;-76
2023/08/23 04:50:57;;;;;;;18.40;11.63;;;;;;;29.77;50.76;94827.78;4996461;28;20206;-76
2023/08/23 04:53:24;;;;;;;13.80;10.48;;;;;;;29.32;51.65;94833.50;4985385;28;20626;-77
2023/08/23 04:55:56;;;;;;;18.30;11.07;;;;;;;29.61;51.04;94834.25;4984239;28;20253;-76
2023/08/23 04:58:27;;;;;;;15.02;11.68;;;;;;;29.65;51.05;94846.09;4988237;28;20217;-77
2023/08/23 05:00:56;;;;;;;14.02;11.20;;;;;;;29.98;49.47;94837.50;4970838;28;20214;-77
2023/08/23 05:03:23;;;;;;;15.18;11.55;;;;;;;30.26;48.62;94835.81;4987382;28;20214;-77
2023/08/23 05:05:51;;;;;;;14.07;11.40;;;;;;;30.71;47.60;94841.88;4987187;28;20211;-75
2023/08/23 05:08:18;;;;;;;15.02;10.98;;;;;;;30.72;47.83;94834.25;4976812;28;20203;-76
2023/08/23 05:11:00;;;;;;;17.77;12.35;;;;;;;31.00;46.21;94836.03;4990608;28;20292;-76
2023/08/23 05:13:26;;;;;;;13.10;11.55;;;;;;;31.08;46.38;94828.94;4987251;28;20241;-76
2023/08/23 05:15:54;;;;;;;19.92;11.80;;;;;;;31.91;44.68;94830.22;4976038;28;20681;-75
2023/08/23 05:18:21;;;;;;;14.13;11.93;;;;;;;32.35;43.85;94822.47;4994088;28;20225;-76
2023/08/23 05:20:55;;;;;;;17.00;11.77;;;;;;;32.53;43.12;94818.13;4988392;28;20255;-76
2023/08/23 05:23:22;;;;;;;13.73;11.43;;;;;;;33.81;40.63;94822.41;4978401;28;20316;-76
2023/08/23 05:25:50;;;;;;;16.83;11.93;;;;;;;33.66;40.64;94832.72;4988755;28;20280;-76
2023/08/23 05:28:18;;;;;;;15.65;12.95;;;;;;;33.51;40.32;94834.66;5000512;28;20209;-75
2023/08/23 05:30:50;;;;;;;15.90;12.05;;;;;;;33.19;41.18;94833.28;4980141;28;20625;-75
2023/08/23 05:33:16;;;;;;;16.13;12.60;;;;;;;33.25;40.86;94841.88;4978838;28;20241;-77
2023/08/23 05:35:44;;;;;;;15.02;12.32;;;;;;;32.63;42.43;94842.91;4981965;28;20205;-75
2023/08/23 05:38:13;;;;;;;16.55;12.52;;;;;;;33.85;40.12;94839.91;4998525;28;20264;-76
2023/08/23 05:40:40;;;;;;;19.40;11.57;;;;;;;33.53;40.30;94835.75;4980831;28;20232;-76
2023/08/23 05:43:07;;;;;;;16.25;12.82;;;;;;;34.01;39.52;94837.97;4995092;28;20586;-75
2023/08/23 05:45:34;;;;;;;15.90;12.68;;;;;;;34.49;39.00;94825.53;4985329;28;20646;-75
2023/08/23 05:48:01;;;;;;;13.95;11.85;;;;;;;34.15;39.37;94824.00;4988161;28;20361;-75
2023/08/23 05:50:28;;;;;;;17.48;12.25;;;;;;;33.91;39.57;94836.41;4989536;28;20237;-75
2023/08/23 05:52:55;;;;;;;20.58;12.32;;;;;;;34.09;39.18;94827.91;4984679;28;20205;-75
2023/08/23 05:55:23;;;;;;;16.88;12.35;;;;;;;34.48;38.71;94826.78;4989940;28;20610;-77
2023/08/23 05:57:50;;;;;;;18.75;11.60;;;;;;;34.79;38.45;94815.19;4983480;28;20740;-76
2023/08/23 06:00:17;;;;;;;17.98;12.20;;;;;;;35.42;37.57;94827.16;4990058;28;20292;-76
2023/08/23 06:02:44;;;;;;;13.82;12.15;;;;;;;35.28;36.96;94822.28;4987434;28;20232;-76
2023/08/23 06:05:13;;;;;;;15.93;12.52;;;;;;;35.34;37.03;94825.22;4989727;28;20216;-76
2023/08/23 06:07:40;;;;;;;16.40;12.88;;;;;;;35.36;36.39;94828.34;4991527;28;20228;-75
2023/08/23 06:10:08;;;;;;;20.02;12.98;;;;;;;35.41;36.61;94830.47;4987958;28;20205;-75
2023/08/23 06:12:39;;;;;;;14.65;12.40;;;;;;;35.70;36.39;94824.84;4992841;28;20691;-76
2023/08/23 06:15:07;;;;;;;14.85;12.90;;;;;;;36.64;34.96;94827.56;4998333;28;20672;-76
2023/08/23 06:17:35;;;;;;;13.27;11.82;;;;;;;36.46;35.32;94827.88;4995049;28;20213;-76
2023/08/23 06:20:03;;;;;;;20.45;12.77;;;;;;;33.43;39.64;94830.63;4989972;28;20324;-76
2023/08/23 06:22:30;;;;;;;15.68;12.20;;;;;;;34.84;38.12;94822.19;4989005;28;20297;-74
2023/08/23 06:24:57;;;;;;;16.17;12.38;;;;;;;36.09;35.67;94821.88;4985216;28;20209;-75
2023/08/23 06:27:24;;;;;;;14.07;12.45;;;;;;;36.55;34.68;94820.03;4989798;28;20213;-73
2023/08/23 06:29:52;;;;;;;18.42;11.98;;;;;;;36.13;35.50;94819.66;4994534;28;20197;-75
2023/08/23 06:32:19;;;;;;;15.98;11.93;;;;;;;35.82;35.94;94832.25;4991701;28;20210;-74
2023/08/23 06:34:46;;;;;;;15.63;12.32;;;;;;;35.32;36.53;94824.94;4995348;28;20214;-75
2023/08/23 06:37:12;;;;;;;13.48;11.82;;;;;;;36.24;35.13;94822.66;4993082;28;20650;-74
2023/08/23 06:39:39;;;;;;;16.77;11.85;;;;;;;36.49;35.26;94813.53;4991821;28;20312;-74
2023/08/23 06:42:09;;;;;;;15.23;11.27;;;;;;;36.16;35.82;94821.50;4995245;28;20263;-74
2023/08/23 06:44:36;;;;;;;18.80;12.18;;;;;;;35.26;36.74;94819.22;4993280;28;20206;-74
2023/08/23 06:47:05;;;;;;;15.55;11.55;;;;;;;36.11;35.11;94825.00;4990365;28;20205;-75
2023/08/23 06:49:32;;;;;;;13.52;11.57;;;;;;;36.45;34.98;94821.44;4992115;28;20629;-76
2023/08/23 06:51:59;;;;;;;15.02;10.88;;;;;;;36.13;35.73;94822.47;4990474;28;20205;-74
2023/08/23 06:54:25;;;;;;;18.13;12.52;;;;;;;35.21;36.75;94828.28;4991530;28;20209;-74
2023/08/23 06:56:52;;;;;;;13.30;11.32;;;;;;;35.37;36.86;94824.25;4994946;28;20206;-75
2023/08/23 06:59:19;;;;;;;16.30;10.90;;;;;;;34.85;37.57;94827.31;4992040;28;20229;-75
2023/08/23 07:01:46;;;;;;;12.48;10.73;;;;;;;35.24;37.52;94822.47;4991826;28;20249;-74
2023/08/23 07:04:15;;;;;;;14.57;11.20;;;;;;;35.76;36.12;94822.94;4989517;28;20308;-76
2023/08/23 07:06:42;;;;;;;15.85;11.75;;;;;;;34.28;38.96;94835.03;4993993;28;20209;-74
2023/08/23 07:09:10;;;;;;;14.75;12.05;;;;;;;34.55;38.04;94834.88;4992214;28;20624;-75
2023/08/23 07:11:38;;;;;;;17.70;11.25;;;;;;;35.35;36.65;94829.59;4991819;28;20206;-75
2023/08/23 07:14:06;;;;;;;13.85;11.73;;;;;;;33.61;38.95;94830.59;4990994;28;20267;-75
2023/08/23 07:16:33;;;;;;;18.55;12.45;;;;;;;33.14;39.88;94826.25;4989965;28;20245;-74
2023/08/23 07:19:01;;;;;;;13.63;11.65;;;;;;;33.50;40.22;94824.66;4991438;28;20699;-75
2023/08/23 07:21:30;;;;;;;14.80;11.07;;;;;;;33.91;39.23;94836.41;4989204;28;20586;-74
2023/08/23 07:23:57;;;;;;;15.73;11.82;;;;;;;34.73;37.73;94833.19;4984650;28;20213;-75
2023/08/23 07:26:25;;;;;;;14.23;10.63;;;;;;;35.24;36.75;94828.09;4992496;28;20225;-74
2023/08/23 07:28:51;;;;;;;13.18;11.48;;;;;;;34.34;37.60;94821.88;4990572;28;20252;-74
2023/08/23 07:31:18;;;;;;;15.55;10.68;;;;;;;33.58;39.37;94825.91;4987790;28;20210;-75
2023/08/23 07:33:45;;;;;;;16.40;10.93;;;;;;;34.01;38.50;94823.91;4991750;28;20260;-75
2023/08/23 07:36:12;;;;;;;15.85;11.15;;;;;;;33.94;38.45;94825.00;4992111;28;21600;-75
2023/08/23 07:38:41;;;;;;;11.90;10.70;;;;;;;33.77;39.25;94821.78;4989302;28;20289;-76
2023/08/23 07:41:07;;;;;;;14.77;9.98;;;;;;;34.26;37.66;94806.59;4981526;28;20218;-75
2023/08/23 07:43:34;;;;;;;14.60;10.20;;;;;;;33.82;38.97;94818.34;4983051;28;20264;-76
2023/08/23 07:46:03;;;;;;;12.60;9.95;;;;;;;32.68;40.36;94816.25;4988975;28;20264;-75
2023/08/23 07:48:29;;;;;;;12.50;10.13;;;;;;;33.13;40.18;94810.66;4983830;28;20571;-75
2023/08/23 07:51:00;;;;;;;11.55;9.35;;;;;;;33.10;40.25;94808.78;4980533;28;20560;-76
2023/08/23 07:53:27;;;;;;;14.57;10.30;;;;;;;33.38;40.42;94812.34;4986055;28;20198;-76
2023/08/23 07:55:55;;;;;;;13.98;10.88;;;;;;;33.65;39.00;94814.31;4985313;28;20210;-74
2023/08/23 07:58:23;;;;;;;16.73;10.73;;;;;;;32.89;40.08;94814.59;4987946;28;20198;-74
2023/08/23 08:00:51;;;;;;;15.75;10.68;;;;;;;32.37;40.31;94813.59;4988058;28;20618;-77
2023/08/23 08:03:17;;;;;;;15.60;10.10;;;;;;;32.56;40.60;94808.75;4988892;28;20206;-74
2023/08/23 08:05:44;;;;;;;17.27;10.10;;;;;;;32.34;41.42;94809.69;4989809;28;20226;-76
2023/08/23 08:08:11;;;;;;;15.23;11.52;;;;;;;31.76;42.24;94813.19;4989747;28;20202;-77
2023/08/23 08:10:38;;;;;;;14.73;10.55;;;;;;;32.38;42.14;94812.34;4990752;28;20217;-75
2023/08/23 08:13:06;;;;;;;12.43;10.80;;;;;;;32.17;42.15;94811.16;4990347;28;20649;-77
2023/08/23 08:15:33;;;;;;;14.95;10.75;;;;;;;32.15;41.88;94805.22;4990180;28;20549;-78
2023/08/23 08:18:00;;;;;;;14.85;10.40;;;;;;;31.28;43.85;94813.88;4991170;28;20202;-78
2023/08/23 08:20:27;;;;;;;15.73;10.82;;;;;;;31.89;42.60;94801.88;4990928;28;20233;-77
2023/08/23 08:22:54;;;;;;;14.57;10.65;;;;;;;31.78;43.15;94802.31;4991197;28;20205;-77
2023/08/23 08:25:21;;;;;;;13.32;10.85;;;;;;;31.69;43.60;94799.50;4991134;28;20198;-78
2023/08/23 08:27:47;;;;;;;14.32;10.57;;;;;;;31.87;43.18;94797.97;4991125;28;20415;-77
2023/08/23 08:30:16;;;;;;;14.73;11.20;;;;;;;32.26;42.02;94797.19;4988521;28;20202;-77
2023/08/23 08:32:43;;;;;;;20.63;10.82;;;;;;;32.39;41.69;94788.66;4990945;28;20216;-77
2023/08/23 08:35:10;;;;;;;12.60;10.20;;;;;;;32.56;41.70;94791.94;4991394;28;20528;-76
2023/08/23 08:37:37;;;;;;;15.13;10.20;;;;;;;32.76;41.52;94800.72;4985321;28;20202;-73
2023/08/23 08:40:04;;;;;;;17.30;10.32;;;;;;;32.74;40.55;94789.16;4988520;28;20225;-76
2023/08/23 08:42:31;;;;;;;12.80;10.25;;;;;;;32.98;40.60;94795.69;4990429;28;20213;-76
2023/08/23 08:44:58;;;;;;;16.23;9.77;;;;;;;33.29;39.66;94791.94;4989984;28;20455;-76
2023/08/23 08:47:26;;;;;;;14.57;9.60;;;;;;;32.96;40.13;94795.38;4990401;28;20268;-76
2023/08/23 08:49:53;;;;;;;15.82;10.30;;;;;;;33.40;38.70;94787.38;4989234;28;20194;-75
2023/08/23 08:52:21;;;;;;;10.90;8.50;;;;;;;33.30;37.98;94793.50;4990391;28;20213;-75
2023/08/23 08:54:51;;;;;;;14.00;11.10;;;;;;;32.94;39.13;94788.69;4990408;28;20667;-77
2023/08/23 08:57:17;;;;;;;12.32;9.07;;;;;;;32.59;39.35;94788.97;4991545;28;20209;-77
2023/08/23 08:59:45;;;;;;;10.25;9.27;;;;;;;32.88;39.28;94796.97;4990117;28;20260;-75
2023/08/23 09:02:15;;;;;;;15.55;9.60;;;;;;;33.49;38.95;94784.53;4971960;28;20614;-76
2023/08/23 09:04:46;;;;;;;10.30;9.27;;;;;;;32.70;38.20;94780.09;4990293;28;20213;-75
2023/08/23 09:07:13;;;;;;;11.88;9.00;;;;;;;32.50;38.74;94777.75;4989140;28;20206;-74
2023/08/23 09:09:41;;;;;;;8.60;7.80;;;;;;;32.54;37.91;94771.97;4990199;28;20566;-74
2023/08/23 09:12:10;;;;;;;14.32;9.00;;;;;;;32.40;38.43;94768.53;4995802;28;20217;-75
2023/08/23 09:14:38;;;;;;;11.98;8.98;;;;;;;32.33;38.16;94765.25;4989707;28;20610;-75
2023/08/23 09:17:06;;;;;;;9.80;8.38;;;;;;;32.87;37.38;94758.91;4989172;28;20637;-75
2023/08/23 09:19:37;;;;;;;11.80;8.32;;;;;;;33.48;36.77;94748.50;4989846;28;20235;-76
2023/08/23 09:22:06;;;;;;;8.90;8.00;;;;;;;33.43;35.89;94757.56;4986951;28;20206;-75
2023/08/23 09:24:33;;;;;;;8.75;7.85;;;;;;;33.03;34.78;94757.78;4989775;28;20268;-76
2023/08/23 09:27:03;;;;;;;8.20;6.85;;;;;;;32.61;33.85;94752.03;4990440;28;20212;-76
2023/08/23 09:29:29;;;;;;;6.95;6.25;;;;;;;32.76;32.64;94744.56;4989739;28;20206;-73
2023/08/23 09:32:01;;;;;;;7.65;6.47;;;;;;;33.04;32.73;94737.69;4987015;28;20217;-75
2023/08/23 09:34:28;;;;;;;7.35;6.55;;;;;;;33.43;32.45;94729.47;4989677;28;20241;-76
2023/08/23 09:37:07;;;;;;;9.65;7.53;;;;;;;33.74;32.97;94727.16;4987113;28;20214;-77
2023/08/23 09:39:34;;;;;;;8.93;7.40;;;;;;;33.13;34.10;94729.22;4988840;28;20244;-79
2023/08/23 09:42:05;;;;;;;9.57;7.50;;;;;;;32.93;34.90;94725.38;4977916;28;20205;-77
2023/08/23 09:44:40;;;;;;;11.48;8.63;;;;;;;32.96;35.26;94730.81;4989175;28;20697;-78
2023/08/23 09:47:13;;;;;;;8.98;7.38;;;;;;;32.89;34.79;94719.13;4988812;28;20857;-77
2023/08/23 09:49:42;;;;;;;8.60;7.63;;;;;;;33.44;34.04;94714.19;4984880;28;20512;-78
2023/08/23 09:52:12;;;;;;;8.52;7.43;;;;;;;33.45;34.70;94710.13;4984796;28;20624;-80
2023/08/23 09:54:49;;;;;;;12.25;8.13;;;;;;;32.96;35.14;94718.81;4979166;28;20855;-78
2023/08/23 09:57:18;;;;;;;9.85;7.60;;;;;;;32.92;34.93;94707.75;4978431;28;20210;-76
2023/08/23 09:59:45;;;;;;;8.98;7.70;;;;;;;33.08;34.38;94698.19;4976273;28;20233;-76
2023/08/23 10:02:15;;;;;;;9.73;7.80;;;;;;;33.28;34.85;94692.84;4980110;28;20633;-75
2023/08/23 10:04:43;;;;;;;10.27;8.27;;;;;;;33.03;35.82;94696.03;4989412;28;20638;-76
2023/08/23 10:07:21;;;;;;;11.50;8.15;;;;;;;32.61;37.04;94696.69;4994183;28;20221;-75
2023/08/23 10:09:51;;;;;;;10.43;8.15;;;;;;;32.77;36.54;94696.41;4976467;28;20206;-75
2023/08/23 10:12:19;;;;;;;10.85;7.72;;;;;;;33.11;35.38;94702.84;4998970;28;20205;-76
2023/08/23 10:14:49;;;;;;;10.77;8.60;;;;;;;33.31;35.77;94688.31;5000557;28;20637;-76
2023/08/23 10:17:21;;;;;;;9.88;8.35;;;;;;;33.88;35.21;94691.97;4993990;28;20566;-76
2023/08/23 10:19:52;;;;;;;13.80;7.80;;;;;;;34.36;34.59;94692.75;4993603;28;20221;-77
2023/08/23 10:22:23;;;;;;;8.45;7.57;;;;;;;34.52;34.29;94695.13;4990134;28;20210;-76
2023/08/23 10:24:51;;;;;;;12.43;7.88;;;;;;;34.25;33.31;94692.50;4998096;28;20205;-74
2023/08/23 10:27:18;;;;;;;12.75;7.38;;;;;;;34.50;33.58;94680.75;5008425;28;20260;-75
2023/08/23 10:29:51;;;;;;;9.38;7.82;;;;;;;34.41;33.61;94686.47;4997221;28;20403;-78
2023/08/23 10:32:18;;;;;;;9.77;7.88;;;;;;;34.03;33.02;94675.16;4992104;28;20566;-76
2023/08/23 10:34:46;;;;;;;8.75;7.38;;;;;;;33.69;33.63;94680.03;4991890;28;20213;-75
2023/08/23 10:37:19;;;;;;;11.27;7.70;;;;;;;34.17;33.57;94682.84;4986059;28;20202;-79
2023/08/23 10:39:51;;;;;;;11.68;7.60;;;;;;;34.32;32.80;94680.91;4991096;28;20256;-77
2023/08/23 10:42:20;;;;;;;8.93;7.35;;;;;;;34.35;32.21;94673.53;4988126;28;20213;-76
2023/08/23 10:44:48;;;;;;;7.93;7.13;;;;;;;34.85;31.86;94672.47;4990111;28;20223;-77
2023/08/23 10:47:17;;;;;;;8.32;6.65;;;;;;;35.43;31.06;94670.91;4986894;28;20662;-77
2023/08/23 10:49:49;;;;;;;7.78;7.03;;;;;;;35.97;30.26;94675.03;4991459;28;20229;-77
2023/08/23 10:52:20;;;;;;;10.98;6.70;;;;;;;36.37;30.44;94673.50;4993169;28;20214;-78
2023/08/23 10:54:52;;;;;;;9.20;6.85;;;;;;;36.74;29.74;94672.94;4992133;28;20213;-76
2023/08/23 10:57:19;;;;;;;9.45;7.50;;;;;;;36.50;29.10;94662.63;4992333;28;20252;-75
2023/08/23 10:59:46;;;;;;;11.05;7.03;;;;;;;36.44;29.08;94667.47;4992347;28;20571;-75
2023/08/23 11:02:13;;;;;;;8.82;7.13;;;;;;;36.83;28.94;94664.28;4988049;28;20217;-77
2023/08/23 11:04:40;;;;;;;9.35;6.78;;;;;;;36.64;28.58;94664.59;4996929;28;20911;-73
2023/08/23 11:07:07;;;;;;;7.88;7.00;;;;;;;35.47;29.31;94673.53;4998211;28;20621;-77
2023/08/23 11:09:35;;;;;;;7.68;6.78;;;;;;;34.49;31.87;94667.94;4999964;28;20212;-76
2023/08/23 11:12:04;;;;;;;10.02;7.28;;;;;;;33.62;34.36;94663.53;4992093;28;20722;-74
2023/08/23 11:14:31;;;;;;;12.07;7.80;;;;;;;33.00;35.51;94672.47;4991685;28;20308;-75
2023/08/23 11:16:58;;;;;;;10.70;7.43;;;;;;;32.92;35.66;94673.28;5004737;28;20225;-74
2023/08/23 11:19:28;;;;;;;9.70;6.47;;;;;;;33.14;35.05;94669.00;4992042;28;20544;-75
2023/08/23 11:21:56;;;;;;;11.77;6.47;;;;;;;32.95;35.54;94661.88;4987152;28;20232;-79
2023/08/23 11:24:23;;;;;;;7.63;6.82;;;;;;;32.50;35.14;94682.38;4990940;28;20214;-79